createdAt,value
2022-12-31T00:01:46.814Z,99213.81
2022-12-31T00:04:14.308Z,99209.94
2022-12-31T00:06:41.787Z,99202.13
2022-12-31T00:09:09.546Z,99217.28
2022-12-31T00:11:37.272Z,99206.69
2022-12-31T00:14:06.360Z,99202.69
2022-12-31T00:16:36.480Z,99214.69
2022-12-31T00:19:05.168Z,99201.28
2022-12-31T00:21:34.218Z,99209.34
2022-12-31T00:24:02.605Z,99219.19
2022-12-31T00:26:34.553Z,99207.75
2022-12-31T00:29:04.902Z,99207.75
2022-12-31T00:31:35.143Z,99218.66
2022-12-31T00:34:02.892Z,99226.41
2022-12-31T00:36:31.498Z,99242.53
2022-12-31T00:39:00.034Z,99231.84
2022-12-31T00:41:28.285Z,99244.88
2022-12-31T00:43:56.124Z,99241.16
2022-12-31T00:46:23.901Z,99246.31
2022-12-31T00:48:52.748Z,99236.50
2022-12-31T00:51:21.839Z,99243.38
2022-12-31T00:53:49.418Z,99243.59
2022-12-31T00:56:18.122Z,99231.38
2022-12-31T00:58:45.651Z,99240.84
2022-12-31T01:01:15.551Z,99246.09
2022-12-31T01:03:43.181Z,99246.53
2022-12-31T01:06:12.411Z,99253.63
2022-12-31T01:08:39.881Z,99256.78
2022-12-31T01:11:23.065Z,99250.53
2022-12-31T01:13:52.909Z,99250.38
2022-12-31T01:16:22.124Z,99250.78
2022-12-31T01:18:49.764Z,99249.22
2022-12-31T01:21:19.262Z,99243.91
2022-12-31T01:23:46.775Z,99249.06
2022-12-31T01:26:16.008Z,99253.06
2022-12-31T01:28:43.635Z,99257.00
2022-12-31T01:31:13.142Z,99255.91
2022-12-31T01:33:41.351Z,99251.38
2022-12-31T01:36:11.319Z,99258.00
2022-12-31T01:38:40.743Z,99250.25
2022-12-31T01:41:08.645Z,99247.38
2022-12-31T01:43:45.421Z,99249.31
2022-12-31T01:46:15.025Z,99254.50
2022-12-31T01:48:42.856Z,99257.44
2022-12-31T01:51:11.252Z,99254.19
2022-12-31T01:53:41.075Z,99267.28
2022-12-31T01:56:08.732Z,99268.03
2022-12-31T01:58:38.127Z,99269.56
2022-12-31T02:01:06.537Z,99272.66
2022-12-31T02:03:34.057Z,99270.22
2022-12-31T02:06:06.587Z,99259.78
2022-12-31T02:08:39.928Z,99244.22
2022-12-31T02:11:27.038Z,99244.84
2022-12-31T02:13:58.608Z,99253.34
2022-12-31T02:16:32.439Z,99249.13
2022-12-31T02:19:05.683Z,99247.63
2022-12-31T02:21:57.960Z,99245.63
2022-12-31T02:25:03.079Z,99250.25
2022-12-31T02:27:42.580Z,99257.47
2022-12-31T02:30:16.366Z,99248.53
2022-12-31T02:32:54.936Z,99251.44
2022-12-31T02:35:26.243Z,99250.31
2022-12-31T02:38:00.971Z,99248.88
2022-12-31T02:40:28.565Z,99241.19
2022-12-31T02:42:56.050Z,99238.16
2022-12-31T02:45:28.863Z,99230.50
2022-12-31T02:48:01.478Z,99227.44
2022-12-31T02:50:34.228Z,99224.09
2022-12-31T02:53:10.687Z,99216.38
2022-12-31T02:55:42.056Z,99207.88
2022-12-31T02:58:14.385Z,99204.13
2022-12-31T03:01:04.317Z,99210.16
2022-12-31T03:03:32.207Z,99211.72
2022-12-31T03:06:00.212Z,99211.31
2022-12-31T03:08:27.910Z,99206.75
2022-12-31T03:10:56.934Z,99211.81
2022-12-31T03:13:23.747Z,99204.38
2022-12-31T03:15:52.560Z,99201.09
2022-12-31T03:18:40.901Z,99201.22
2022-12-31T03:21:31.013Z,99203.88
2022-12-31T03:24:16.346Z,99198.56
2022-12-31T03:26:43.833Z,99193.28
2022-12-31T03:29:11.273Z,99188.41
2022-12-31T03:31:40.133Z,99185.75
2022-12-31T03:34:07.598Z,99193.94
2022-12-31T03:36:35.231Z,99181.44
2022-12-31T03:39:02.688Z,99183.06
2022-12-31T03:41:30.161Z,99165.38
2022-12-31T03:43:57.604Z,99174.13
2022-12-31T03:46:25.079Z,99173.88
2022-12-31T03:48:53.889Z,99159.63
2022-12-31T03:51:21.354Z,99157.47
2022-12-31T03:53:48.817Z,99153.09
2022-12-31T03:56:16.291Z,99155.59
2022-12-31T03:58:43.863Z,99151.69
2022-12-31T04:01:11.530Z,99151.59
2022-12-31T04:03:39.041Z,99153.84
2022-12-31T04:06:08.128Z,99143.91
2022-12-31T04:08:35.570Z,99142.22
2022-12-31T04:11:04.435Z,99142.19
2022-12-31T04:13:31.886Z,99132.66
2022-12-31T04:15:59.430Z,99145.44
2022-12-31T04:18:26.939Z,99146.19
2022-12-31T04:20:54.423Z,99134.75
2022-12-31T04:23:23.208Z,99134.50
2022-12-31T04:25:50.677Z,99135.56
2022-12-31T04:28:18.183Z,99125.81
2022-12-31T04:30:45.688Z,99121.22
2022-12-31T04:33:13.229Z,99121.25
2022-12-31T04:35:40.697Z,99112.16
2022-12-31T04:38:08.191Z,99121.00
2022-12-31T04:40:56.956Z,99115.47
2022-12-31T04:43:24.464Z,99121.63
2022-12-31T04:45:51.955Z,99124.00
2022-12-31T04:48:19.463Z,99117.56
2022-12-31T04:50:47.272Z,99121.16
2022-12-31T04:53:14.805Z,99114.03
2022-12-31T04:55:43.617Z,99106.03
2022-12-31T04:58:11.125Z,99105.88
2022-12-31T05:00:38.638Z,99103.03
2022-12-31T05:03:06.136Z,99104.69
2022-12-31T05:05:33.645Z,99105.31
2022-12-31T05:08:01.151Z,99101.03
2022-12-31T05:10:29.370Z,99097.34
2022-12-31T05:12:58.178Z,99097.69
2022-12-31T05:15:25.636Z,99101.56
2022-12-31T05:17:53.140Z,99087.91
2022-12-31T05:20:20.612Z,99080.28
2022-12-31T05:22:48.087Z,99080.00
2022-12-31T05:25:15.850Z,99075.84
2022-12-31T05:27:43.452Z,99080.00
2022-12-31T05:30:13.168Z,99071.13
2022-12-31T05:32:41.156Z,99067.19
2022-12-31T05:35:09.248Z,99072.59
2022-12-31T05:37:36.733Z,99053.44
2022-12-31T05:40:04.935Z,99065.16
2022-12-31T05:42:32.448Z,99060.31
2022-12-31T05:44:59.916Z,99065.03
2022-12-31T05:47:29.697Z,99061.84
2022-12-31T05:49:57.162Z,99067.50
2022-12-31T05:52:24.645Z,99069.44
2022-12-31T05:54:52.134Z,99071.56
2022-12-31T05:57:19.669Z,99070.47
2022-12-31T05:59:47.157Z,99090.47
2022-12-31T06:02:14.766Z,99075.53
2022-12-31T06:04:43.576Z,99081.13
2022-12-31T06:07:11.090Z,99083.34
2022-12-31T06:09:38.616Z,99088.06
2022-12-31T06:12:06.828Z,99094.03
2022-12-31T06:14:34.387Z,99086.53
2022-12-31T06:17:02.164Z,99085.53
2022-12-31T06:19:30.191Z,99071.75
2022-12-31T06:21:59.016Z,99083.44
2022-12-31T06:24:26.521Z,99083.50
2022-12-31T06:26:54.027Z,99080.38
2022-12-31T06:29:21.560Z,99081.88
2022-12-31T06:31:49.059Z,99076.69
2022-12-31T06:34:16.519Z,99088.44
2022-12-31T06:36:44.000Z,99078.47
2022-12-31T06:39:12.817Z,99091.38
2022-12-31T06:41:40.314Z,99093.28
2022-12-31T06:44:07.863Z,99106.13
2022-12-31T06:46:35.441Z,99114.03
2022-12-31T06:49:03.000Z,99111.03
2022-12-31T06:51:30.500Z,99121.72
2022-12-31T06:53:57.961Z,99124.41
2022-12-31T06:56:34.003Z,99129.25
2022-12-31T06:59:03.141Z,99134.22
2022-12-31T07:01:47.464Z,99141.34
2022-12-31T07:04:36.133Z,99135.81
2022-12-31T07:07:08.805Z,99151.06
2022-12-31T07:09:38.310Z,99148.91
2022-12-31T07:12:12.598Z,99152.25
2022-12-31T07:14:44.267Z,99149.59
2022-12-31T07:17:21.847Z,99161.09
2022-12-31T07:19:57.874Z,99155.81
2022-12-31T07:22:26.046Z,99161.81
2022-12-31T07:24:54.160Z,99169.31
2022-12-31T07:27:36.000Z,99165.94
2022-12-31T07:30:06.241Z,99178.16
2022-12-31T07:32:57.599Z,99166.31
2022-12-31T07:35:34.943Z,99160.75
2022-12-31T07:38:07.242Z,99163.94
2022-12-31T07:40:39.459Z,99173.03
2022-12-31T07:43:12.752Z,99176.81
2022-12-31T07:45:44.947Z,99174.84
2022-12-31T07:48:22.427Z,99184.56
2022-12-31T07:50:50.218Z,99182.88
2022-12-31T07:53:18.385Z,99180.81
2022-12-31T07:55:45.890Z,99173.22
2022-12-31T07:58:21.377Z,99173.84
2022-12-31T08:00:49.254Z,99176.63
2022-12-31T08:03:27.773Z,99163.34
2022-12-31T08:06:01.934Z,99174.19
2022-12-31T08:08:36.833Z,99170.69
2022-12-31T08:11:10.959Z,99182.88
2022-12-31T08:13:40.139Z,99179.97
2022-12-31T08:16:11.088Z,99189.22
2022-12-31T08:18:39.082Z,99183.91
2022-12-31T08:21:15.619Z,99188.16
2022-12-31T08:23:48.948Z,99186.59
2022-12-31T08:26:24.712Z,99191.50
2022-12-31T08:29:02.278Z,99190.63
2022-12-31T08:31:36.169Z,99188.66
2022-12-31T08:34:09.645Z,99198.84
2022-12-31T08:36:45.401Z,99192.13
2022-12-31T08:39:19.678Z,99185.25
2022-12-31T08:41:49.326Z,99198.38
2022-12-31T08:44:24.002Z,99202.56
2022-12-31T08:46:56.458Z,99204.22
2022-12-31T08:49:27.645Z,99198.44
2022-12-31T08:51:55.647Z,99199.22
2022-12-31T08:54:23.601Z,99212.13
2022-12-31T08:57:04.844Z,99210.84
2022-12-31T08:59:40.633Z,99212.94
2022-12-31T09:02:49.653Z,99213.31
2022-12-31T09:05:21.703Z,99225.34
2022-12-31T09:07:52.783Z,99250.84
2022-12-31T09:10:24.622Z,99241.41
2022-12-31T09:12:59.149Z,99244.69
2022-12-31T09:15:31.550Z,99250.38
2022-12-31T09:17:59.594Z,99237.78
2022-12-31T09:20:41.795Z,99249.16
2022-12-31T09:23:12.086Z,99253.69
2022-12-31T09:25:44.047Z,99253.38
2022-12-31T09:28:16.573Z,99262.91
2022-12-31T09:30:51.549Z,99259.94
2022-12-31T09:33:31.167Z,99272.88
2022-12-31T09:36:00.286Z,99261.41
2022-12-31T09:38:32.217Z,99267.84
2022-12-31T09:41:14.328Z,99278.34
2022-12-31T09:44:15.447Z,99270.75
2022-12-31T09:47:08.697Z,99281.66
2022-12-31T09:50:28.042Z,99293.84
2022-12-31T09:53:05.178Z,99292.28
2022-12-31T09:55:37.880Z,99298.31
2022-12-31T09:58:08.947Z,99285.72
2022-12-31T10:00:40.278Z,99283.44
2022-12-31T10:03:33.322Z,99290.28
2022-12-31T10:06:05.470Z,99290.59
2022-12-31T10:08:51.050Z,99283.09
2022-12-31T10:11:25.301Z,99278.50
2022-12-31T10:14:08.938Z,99300.66
2022-12-31T10:16:49.657Z,99279.13
2022-12-31T10:19:53.483Z,99275.25
2022-12-31T10:22:44.950Z,99270.56
2022-12-31T10:25:39.727Z,99277.09
2022-12-31T10:28:16.453Z,99270.47
2022-12-31T10:30:50.271Z,99278.56
2022-12-31T10:33:21.013Z,99284.53
2022-12-31T10:35:54.756Z,99276.59
2022-12-31T10:38:28.368Z,99265.50
2022-12-31T10:41:32.363Z,99260.81
2022-12-31T10:44:20.929Z,99252.28
2022-12-31T10:47:05.788Z,99261.06
2022-12-31T10:50:05.178Z,99257.84
2022-12-31T10:53:03.128Z,99263.66
2022-12-31T10:56:16.189Z,99255.25
2022-12-31T10:59:10.108Z,99258.22
2022-12-31T11:01:49.167Z,99263.13
2022-12-31T11:04:53.253Z,99272.44
2022-12-31T11:07:56.088Z,99265.31
2022-12-31T11:10:58.973Z,99267.34
2022-12-31T11:13:59.125Z,99257.78
2022-12-31T11:16:39.312Z,99271.16
2022-12-31T11:19:13.705Z,99260.44
2022-12-31T11:21:55.096Z,99259.78
2022-12-31T11:24:31.967Z,99269.00
2022-12-31T11:27:10.040Z,99263.34
2022-12-31T11:29:47.011Z,99258.97
2022-12-31T11:32:23.451Z,99254.13
2022-12-31T11:35:30.053Z,99260.66
2022-12-31T11:38:04.716Z,99268.03
2022-12-31T11:40:38.234Z,99257.78
2022-12-31T11:43:16.165Z,99268.28
2022-12-31T11:45:55.212Z,99280.31
2022-12-31T11:48:31.336Z,99272.66
2022-12-31T11:51:11.024Z,99278.75
2022-12-31T11:53:57.388Z,99277.69
2022-12-31T11:56:28.280Z,99280.38
2022-12-31T11:58:57.414Z,99277.69
2022-12-31T12:01:28.456Z,99288.72
2022-12-31T12:03:56.487Z,99285.22
2022-12-31T12:06:26.457Z,99289.53
2022-12-31T12:08:54.654Z,99278.25
2022-12-31T12:11:25.750Z,99285.38
2022-12-31T12:13:53.259Z,99283.63
2022-12-31T12:16:22.982Z,99298.16
2022-12-31T12:18:52.109Z,99298.66
2022-12-31T12:21:22.015Z,99309.81
2022-12-31T12:23:57.078Z,99316.25
2022-12-31T12:26:29.991Z,99326.31
2022-12-31T12:29:01.190Z,99318.84
2022-12-31T12:31:30.560Z,99322.59
2022-12-31T12:33:58.309Z,99327.63
2022-12-31T12:36:27.296Z,99334.94
2022-12-31T12:39:02.410Z,99330.41
2022-12-31T12:41:29.965Z,99339.47
2022-12-31T12:44:05.759Z,99338.50
2022-12-31T12:46:36.889Z,99350.16
2022-12-31T12:49:05.084Z,99342.41
2022-12-31T12:51:46.566Z,99346.50
2022-12-31T12:54:24.575Z,99335.09
2022-12-31T12:56:59.288Z,99330.94
2022-12-31T12:59:50.781Z,99325.03
2022-12-31T13:02:36.387Z,99324.84
2022-12-31T13:05:14.805Z,99339.09
2022-12-31T13:07:51.850Z,99341.56
2022-12-31T13:10:30.944Z,99325.53
2022-12-31T13:13:23.493Z,99334.59
2022-12-31T13:15:56.129Z,99345.19
2022-12-31T13:18:34.017Z,99343.47
2022-12-31T13:21:18.426Z,99351.56
2022-12-31T13:23:50.791Z,99348.94
2022-12-31T13:26:23.443Z,99352.25
2022-12-31T13:28:53.555Z,99369.56
2022-12-31T13:31:25.996Z,99356.94
2022-12-31T13:33:57.370Z,99353.66
2022-12-31T13:36:26.710Z,99356.41
2022-12-31T13:38:55.669Z,99359.81
2022-12-31T13:41:27.219Z,99366.59
2022-12-31T13:43:59.280Z,99365.91
2022-12-31T13:46:35.771Z,99369.63
2022-12-31T13:49:06.889Z,99368.59
2022-12-31T13:51:41.790Z,99368.94
2022-12-31T13:54:18.571Z,99369.56
2022-12-31T13:56:46.495Z,99369.41
2022-12-31T13:59:17.170Z,99368.50
2022-12-31T14:01:49.351Z,99377.03
2022-12-31T14:04:20.694Z,99370.78
2022-12-31T14:06:56.753Z,99370.00
2022-12-31T14:09:26.359Z,99384.63
2022-12-31T14:12:10.410Z,99384.41
2022-12-31T14:14:44.147Z,99372.59
2022-12-31T14:17:18.747Z,99375.41
2022-12-31T14:19:55.492Z,99379.66
2022-12-31T14:22:30.472Z,99379.97
2022-12-31T14:24:59.936Z,99383.66
2022-12-31T14:27:30.010Z,99386.19
2022-12-31T14:30:00.069Z,99381.38
2022-12-31T14:32:40.655Z,99384.94
2022-12-31T14:35:23.897Z,99396.16
2022-12-31T14:37:58.172Z,99394.09
2022-12-31T14:40:28.313Z,99390.72
2022-12-31T14:43:02.791Z,99377.44
2022-12-31T14:45:41.241Z,99381.06
2022-12-31T14:48:21.844Z,99387.09
2022-12-31T14:50:51.187Z,99379.66
2022-12-31T14:53:22.615Z,99392.88
2022-12-31T14:55:58.097Z,99385.25
2022-12-31T14:58:32.023Z,99384.84
2022-12-31T15:01:00.668Z,99389.63
2022-12-31T15:03:39.996Z,99394.38
2022-12-31T15:06:29.030Z,99398.97
2022-12-31T15:09:08.223Z,99405.47
2022-12-31T15:11:46.130Z,99403.59
2022-12-31T15:14:33.698Z,99416.53
2022-12-31T15:17:10.866Z,99414.06
2022-12-31T15:20:16.723Z,99410.81
2022-12-31T15:22:47.829Z,99417.13
2022-12-31T15:25:33.883Z,99432.06
2022-12-31T15:28:06.449Z,99416.84
2022-12-31T15:30:37.629Z,99426.03
2022-12-31T15:33:08.666Z,99421.75
2022-12-31T15:35:47.967Z,99418.50
2022-12-31T15:38:33.593Z,99424.84
2022-12-31T15:41:01.679Z,99434.16
2022-12-31T15:43:36.777Z,99426.19
2022-12-31T15:46:11.596Z,99419.56
2022-12-31T15:48:44.579Z,99427.38
2022-12-31T15:51:16.967Z,99427.91
2022-12-31T15:53:52.187Z,99436.88
2022-12-31T15:56:23.418Z,99430.16
2022-12-31T15:58:55.626Z,99422.78
2022-12-31T16:01:24.749Z,99420.78
2022-12-31T16:03:56.533Z,99410.16
2022-12-31T16:06:24.288Z,99422.47
2022-12-31T16:08:53.318Z,99434.88
2022-12-31T16:11:20.806Z,99428.47
2022-12-31T16:13:50.854Z,99439.34
2022-12-31T16:16:22.317Z,99434.34
2022-12-31T16:18:51.033Z,99442.19
2022-12-31T16:21:32.546Z,99438.34
2022-12-31T16:24:02.773Z,99444.34
2022-12-31T16:26:34.211Z,99447.44
2022-12-31T16:29:04.304Z,99445.88
2022-12-31T16:31:32.684Z,99452.44
2022-12-31T16:34:07.527Z,99445.25
2022-12-31T16:36:35.412Z,99451.25
2022-12-31T16:39:25.888Z,99448.31
2022-12-31T16:41:54.307Z,99449.59
2022-12-31T16:44:26.444Z,99453.41
2022-12-31T16:46:57.074Z,99462.84
2022-12-31T16:49:25.033Z,99466.56
2022-12-31T16:51:52.933Z,99463.41
2022-12-31T16:54:21.934Z,99457.59
2022-12-31T16:56:51.110Z,99450.94
2022-12-31T16:59:24.167Z,99462.03
2022-12-31T17:01:52.590Z,99454.72
2022-12-31T17:04:21.652Z,99458.31
2022-12-31T17:06:49.268Z,99466.66
2022-12-31T17:09:20.843Z,99474.00
2022-12-31T17:11:53.882Z,99466.94
2022-12-31T17:14:23.963Z,99477.16
2022-12-31T17:17:03.108Z,99465.47
2022-12-31T17:19:42.519Z,99461.00
2022-12-31T17:22:14.403Z,99460.31
2022-12-31T17:24:42.607Z,99462.59
2022-12-31T17:27:11.716Z,99461.56
2022-12-31T17:29:40.420Z,99450.88
2022-12-31T17:32:26.634Z,99447.84
2022-12-31T17:34:54.282Z,99447.38
2022-12-31T17:37:24.472Z,99445.91
2022-12-31T17:39:52.764Z,99451.09
2022-12-31T17:42:30.189Z,99446.09
2022-12-31T17:45:01.011Z,99463.16
2022-12-31T17:47:35.179Z,99476.78
2022-12-31T17:50:08.539Z,99477.94
2022-12-31T17:52:36.448Z,99473.38
2022-12-31T17:55:04.197Z,99466.78
2022-12-31T17:57:33.076Z,99462.75
2022-12-31T18:00:00.557Z,99468.22
2022-12-31T18:02:28.182Z,99478.03
2022-12-31T18:04:55.933Z,99481.03
2022-12-31T18:07:23.432Z,99475.72
2022-12-31T18:09:50.931Z,99465.69
2022-12-31T18:12:18.564Z,99471.59
2022-12-31T18:14:47.352Z,99474.19
2022-12-31T18:17:16.221Z,99467.91
2022-12-31T18:20:04.163Z,99474.44
2022-12-31T18:22:31.572Z,99479.19
2022-12-31T18:24:59.266Z,99486.16
2022-12-31T18:27:26.782Z,99490.22
2022-12-31T18:30:00.556Z,99478.88
2022-12-31T18:32:32.846Z,99472.16
2022-12-31T18:35:00.353Z,99464.09
2022-12-31T18:37:29.492Z,99475.44
2022-12-31T18:39:56.948Z,99472.69
2022-12-31T18:42:26.761Z,99460.50
2022-12-31T18:44:55.903Z,99455.13
2022-12-31T18:47:24.013Z,99444.81
2022-12-31T18:49:51.542Z,99445.94
2022-12-31T18:52:21.252Z,99431.47
2022-12-31T18:54:48.960Z,99447.28
2022-12-31T18:57:17.065Z,99441.56
2022-12-31T18:59:44.544Z,99456.47
2022-12-31T19:02:16.679Z,99456.28
2022-12-31T19:04:44.252Z,99451.41
2022-12-31T19:07:11.777Z,99455.88
2022-12-31T19:09:49.116Z,99446.63
2022-12-31T19:12:19.076Z,99439.75
2022-12-31T19:14:46.605Z,99449.00
2022-12-31T19:17:15.604Z,99445.13
2022-12-31T19:19:43.155Z,99451.22
2022-12-31T19:22:14.682Z,99452.22
2022-12-31T19:24:42.236Z,99450.88
2022-12-31T19:27:11.123Z,99444.25
2022-12-31T19:29:38.782Z,99441.56
2022-12-31T19:32:07.063Z,99446.69
2022-12-31T19:34:36.040Z,99447.44
2022-12-31T19:37:03.542Z,99457.03
2022-12-31T19:39:31.024Z,99458.84
2022-12-31T19:41:59.687Z,99458.78
2022-12-31T19:44:27.556Z,99457.69
2022-12-31T19:46:55.233Z,99461.50
2022-12-31T19:49:22.957Z,99449.63
2022-12-31T19:51:51.894Z,99448.66
2022-12-31T19:54:19.401Z,99457.09
2022-12-31T19:56:47.103Z,99449.31
2022-12-31T19:59:14.581Z,99430.44
2022-12-31T20:01:42.157Z,99440.44
2022-12-31T20:04:10.013Z,99447.44
2022-12-31T20:06:37.538Z,99430.31
2022-12-31T20:09:06.790Z,99435.44
2022-12-31T20:11:34.677Z,99443.44
2022-12-31T20:14:02.308Z,99444.72
2022-12-31T20:16:31.735Z,99450.19
2022-12-31T20:18:59.472Z,99460.75
2022-12-31T20:21:28.842Z,99466.94
2022-12-31T20:23:56.649Z,99460.91
2022-12-31T20:26:27.519Z,99458.63
2022-12-31T20:28:55.014Z,99470.19
2022-12-31T20:31:27.141Z,99475.94
2022-12-31T20:33:54.892Z,99478.56
2022-12-31T20:36:23.562Z,99488.53
2022-12-31T20:38:51.391Z,99495.66
2022-12-31T20:41:20.526Z,99485.84
2022-12-31T20:43:49.712Z,99486.63
2022-12-31T20:46:20.307Z,99499.69
2022-12-31T20:48:49.247Z,99497.69
2022-12-31T20:51:18.380Z,99498.75
2022-12-31T20:53:47.832Z,99500.44
2022-12-31T20:56:15.512Z,99498.19
2022-12-31T20:58:43.001Z,99494.16
2022-12-31T21:01:12.426Z,99496.28
2022-12-31T21:06:29.763Z,99495.72
2022-12-31T21:08:57.921Z,99487.41
2022-12-31T21:11:43.291Z,99498.59
2022-12-31T21:14:10.899Z,99491.34
2022-12-31T21:16:39.927Z,99505.78
2022-12-31T21:19:07.526Z,99499.63
2022-12-31T21:21:35.047Z,99517.38
2022-12-31T21:24:02.702Z,99508.06
2022-12-31T21:26:30.557Z,99528.41
2022-12-31T21:28:58.151Z,99523.53
2022-12-31T21:31:25.728Z,99524.97
2022-12-31T21:33:54.590Z,99526.19
2022-12-31T21:36:22.106Z,99524.84
2022-12-31T21:38:49.697Z,99536.84
2022-12-31T21:41:33.641Z,99538.72
2022-12-31T21:44:03.162Z,99540.03
2022-12-31T21:46:31.034Z,99555.28
2022-12-31T21:49:00.884Z,99546.09
2022-12-31T21:51:28.784Z,99550.44
2022-12-31T21:53:56.298Z,99546.22
2022-12-31T21:56:22.985Z,99547.31
2022-12-31T21:59:15.219Z,99545.25
2022-12-31T22:02:06.021Z,99544.88
2022-12-31T22:05:01.405Z,99547.56
2022-12-31T22:07:22.577Z,99545.63
2022-12-31T22:09:50.069Z,99552.47
2022-12-31T22:12:17.590Z,99551.00
2022-12-31T22:15:14.992Z,99551.44
2022-12-31T22:17:32.569Z,99560.06
2022-12-31T22:20:25.674Z,99561.88
2022-12-31T22:22:48.923Z,99560.97
2022-12-31T22:25:16.685Z,99567.47
2022-12-31T22:27:58.372Z,99561.97
2022-12-31T22:30:32.153Z,99555.88
2022-12-31T22:32:59.667Z,99560.88
2022-12-31T22:35:28.492Z,99564.09
2022-12-31T22:37:58.479Z,99577.03
2022-12-31T22:40:29.237Z,99573.59
2022-12-31T22:42:56.771Z,99568.03
2022-12-31T22:45:24.325Z,99567.28
2022-12-31T22:47:52.003Z,99575.16
2022-12-31T22:50:19.766Z,99579.78
2022-12-31T22:52:49.594Z,99578.47
2022-12-31T22:55:17.180Z,99580.44
2022-12-31T22:57:44.664Z,99579.56
2022-12-31T23:00:14.401Z,99586.03
2022-12-31T23:02:43.147Z,99583.69
2022-12-31T23:05:15.490Z,99593.03
2022-12-31T23:07:44.207Z,99587.91
2022-12-31T23:10:30.790Z,99597.66
2022-12-31T23:13:19.390Z,99601.53
2022-12-31T23:16:04.596Z,99597.31
2022-12-31T23:18:50.041Z,99606.91
2022-12-31T23:21:35.314Z,99605.50
2022-12-31T23:24:04.440Z,99617.41
2022-12-31T23:26:33.325Z,99619.34
2022-12-31T23:29:02.133Z,99620.31
2022-12-31T23:31:30.602Z,99610.28
2022-12-31T23:33:58.299Z,99615.31
2022-12-31T23:36:25.821Z,99620.31
2022-12-31T23:38:54.935Z,99619.47
2022-12-31T23:41:25.725Z,99624.13
2022-12-31T23:43:54.522Z,99618.97
2022-12-31T23:46:22.303Z,99622.31
2022-12-31T23:48:49.833Z,99632.50
2022-12-31T23:51:17.349Z,99633.41
2022-12-31T23:53:44.888Z,99628.19
2022-12-31T23:56:22.797Z,99630.06
2022-12-31T23:58:55.894Z,99628.28
